Time,TemperatureF,DewpointF,PressureIn,WindDirection,WindDirectionDegrees,WindSpeedMPH,WindSpeedGustMPH,Humidity,HourlyPrecipIn,Conditions,Clouds,dailyrainin,SoftwareType,DateUTC
2013-11-04 00:04:00,57.6,32.2,29.79,SW,225,0.9,0.9,38,0.00,,---,0.00,VWS V14.01,2013-11-04 07:04:00,
2013-11-04 00:09:00,57.6,32.2,29.79,SW,225,0.9,0.9,38,0.00,,---,0.00,VWS V14.01,2013-11-04 07:09:00,
2013-11-04 00:14:00,57.4,32.0,29.79,SW,225,0.9,0.9,38,0.00,,---,0.00,VWS V14.01,2013-11-04 07:14:00,
2013-11-04 00:19:00,57.2,31.8,29.79,SW,225,0.9,0.9,38,0.00,,---,0.00,VWS V14.01,2013-11-04 07:19:00,
2013-11-04 00:24:00,57.2,31.8,29.79,SW,225,0.9,0.9,38,0.00,,---,0.00,VWS V14.01,2013-11-04 07:24:00,
2013-11-04 00:29:00,57.2,31.8,29.79,SW,225,0.9,0.9,38,0.00,,---,0.00,VWS V14.01,2013-11-04 07:29:00,
2013-11-04 00:34:00,56.8,31.5,29.79,SW,225,0.9,0.9,38,0.00,,---,0.00,VWS V14.01,2013-11-04 07:34:00,
2013-11-04 00:39:00,56.7,31.4,29.79,SW,225,0.9,0.9,38,0.00,,---,0.00,VWS V14.01,2013-11-04 07:39:00,
2013-11-04 00:44:00,56.7,32.0,29.79,SW,225,0.9,0.9,39,0.00,,---,0.00,VWS V14.01,2013-11-04 07:44:00,
2013-11-04 00:49:00,56.7,31.4,29.79,SW,225,0.9,0.9,38,0.00,,---,0.00,VWS V14.01,2013-11-04 07:49:00,
2013-11-04 00:54:00,56.7,32.0,29.79,SW,225,0.9,0.9,39,0.00,,---,0.00,VWS V14.01,2013-11-04 07:54:00,
2013-11-04 00:59:00,56.7,32.0,29.79,SW,225,0.9,0.9,39,0.00,,---,0.00,VWS V14.01,2013-11-04 07:59:00,
2013-11-04 01:04:00,56.7,32.0,29.79,SW,225,0.9,0.9,39,0.00,,---,0.00,VWS V14.01,2013-11-04 08:04:00,
2013-11-04 01:09:00,56.5,31.2,29.79,SW,225,0.9,0.9,38,0.00,,---,0.00,VWS V14.01,2013-11-04 08:09:00,
2013-11-04 01:14:00,56.3,31.0,29.79,SW,225,0.9,0.9,38,0.00,,---,0.00,VWS V14.01,2013-11-04 08:14:00,
2013-11-04 01:19:00,56.3,31.7,29.79,SW,225,0.9,0.9,39,0.00,,---,0.00,VWS V14.01,2013-11-04 08:19:00,
2013-11-04 01:25:00,56.3,31.0,29.79,SW,225,0.9,0.9,38,0.00,,---,0.00,VWS V14.01,2013-11-04 08:25:00,
2013-11-04 01:30:00,56.1,30.9,29.79,SW,225,0.9,0.9,38,0.00,,---,0.00,VWS V14.01,2013-11-04 08:30:00,
2013-11-04 01:35:00,56.3,31.7,29.79,SW,225,0.9,0.9,39,0.00,,---,0.00,VWS V14.01,2013-11-04 08:35:00,
2013-11-04 01:40:00,56.1,30.9,29.79,SW,225,0.9,0.9,38,0.00,,---,0.00,VWS V14.01,2013-11-04 08:40:00,
2013-11-04 01:45:00,56.1,30.9,29.79,SW,225,0.9,0.9,38,0.00,,---,0.00,VWS V14.01,2013-11-04 08:45:00,
2013-11-04 01:50:00,56.1,30.9,29.79,SW,225,0.9,0.9,38,0.00,,---,0.00,VWS V14.01,2013-11-04 08:50:00,
2013-11-04 01:55:00,56.1,30.9,29.79,SW,225,0.9,0.9,38,0.00,,---,0.00,VWS V14.01,2013-11-04 08:55:00,
2013-11-04 02:00:00,56.1,30.9,29.79,SW,225,0.9,0.9,38,0.00,,---,0.00,VWS V14.01,2013-11-04 09:00:00,
2013-11-04 02:05:00,56.1,31.5,29.79,SW,225,0.9,0.9,39,0.00,,---,0.00,VWS V14.01,2013-11-04 09:05:00,
2013-11-04 02:10:00,56.1,30.9,29.79,SW,225,0.9,0.9,38,0.00,,---,0.00,VWS V14.01,2013-11-04 09:10:00,
2013-11-04 02:15:00,55.9,30.7,29.79,SW,225,0.9,0.9,38,0.00,,---,0.00,VWS V14.01,2013-11-04 09:15:00,
2013-11-04 02:20:00,55.9,31.4,29.79,SW,225,0.9,0.9,39,0.00,,---,0.00,VWS V14.01,2013-11-04 09:20:00,
2013-11-04 02:25:00,55.8,31.2,29.79,SW,225,0.9,0.9,39,0.00,,---,0.00,VWS V14.01,2013-11-04 09:25:00,
2013-11-04 02:30:00,55.6,31.0,29.79,SW,225,0.9,0.9,39,0.00,,---,0.00,VWS V14.01,2013-11-04 09:30:00,
2013-11-04 02:35:00,55.6,31.0,29.79,SW,225,0.9,0.9,39,0.00,,---,0.00,VWS V14.01,2013-11-04 09:35:00,
2013-11-04 02:40:00,55.4,30.9,29.79,SW,225,0.9,0.9,39,0.00,,---,0.00,VWS V14.01,2013-11-04 09:40:00,
2013-11-04 02:46:00,54.9,30.4,29.76,SW,225,0.9,0.9,39,0.00,,---,0.00,VWS V14.01,2013-11-04 09:46:00,
2013-11-04 02:51:00,54.7,30.9,29.76,SW,225,0.9,0.9,40,0.00,,---,0.00,VWS V14.01,2013-11-04 09:51:00,
2013-11-04 02:56:00,54.5,30.7,29.76,SW,225,0.9,0.9,40,0.00,,---,0.00,VWS V14.01,2013-11-04 09:56:00,
2013-11-04 03:01:00,54.1,30.4,29.76,SW,225,0.9,0.9,40,0.00,,---,0.00,VWS V14.01,2013-11-04 10:01:00,
2013-11-04 03:06:00,53.8,30.0,29.76,SW,225,0.9,0.9,40,0.00,,---,0.00,VWS V14.01,2013-11-04 10:06:00,
2013-11-04 03:11:00,53.6,29.9,29.76,SW,225,0.9,0.9,40,0.00,,---,0.00,VWS V14.01,2013-11-04 10:11:00,
2013-11-04 03:16:00,53.4,30.3,29.76,SW,225,0.9,0.9,41,0.00,,---,0.00,VWS V14.01,2013-11-04 10:16:00,
2013-11-04 03:21:00,53.4,30.3,29.76,SW,225,0.9,0.9,41,0.00,,---,0.00,VWS V14.01,2013-11-04 10:21:00,
2013-11-04 03:26:00,53.4,30.9,29.76,SW,225,0.9,0.9,42,0.00,,---,0.00,VWS V14.01,2013-11-04 10:26:00,
2013-11-04 03:31:00,53.4,30.9,29.76,SW,225,0.9,0.9,42,0.00,,---,0.00,VWS V14.01,2013-11-04 10:31:00,
2013-11-04 03:36:00,53.4,30.9,29.76,SW,225,0.9,0.9,42,0.00,,---,0.00,VWS V14.01,2013-11-04 10:36:00,
2013-11-04 03:41:00,53.6,31.7,29.76,SW,225,0.9,0.9,43,0.00,,---,0.00,VWS V14.01,2013-11-04 10:41:00,
2013-11-04 03:46:00,53.4,30.3,29.76,SW,225,0.9,0.9,41,0.00,,---,0.00,VWS V14.01,2013-11-04 10:46:00,
2013-11-04 03:51:00,52.9,30.4,29.76,SW,225,0.9,0.9,42,0.00,,---,0.00,VWS V14.01,2013-11-04 10:51:00,
2013-11-04 03:56:00,52.7,30.9,29.76,SW,225,0.9,0.9,43,0.00,,---,0.00,VWS V14.01,2013-11-04 10:56:00,
2013-11-04 04:02:00,52.7,30.3,29.76,SW,225,0.9,0.9,42,0.00,,---,0.00,VWS V14.01,2013-11-04 11:02:00,
2013-11-04 04:07:00,52.3,30.0,29.76,SW,225,0.9,0.9,42,0.00,,---,0.00,VWS V14.01,2013-11-04 11:07:00,
2013-11-04 04:12:00,52.3,30.5,29.76,SW,225,0.9,0.9,43,0.00,,---,0.00,VWS V14.01,2013-11-04 11:12:00,
2013-11-04 04:16:00,52.3,30.5,29.79,SW,225,0.9,0.9,43,0.00,,---,0.00,VWS V14.01,2013-11-04 11:16:00,
2013-11-04 04:21:00,52.3,31.1,29.79,SW,225,0.9,0.9,44,0.00,,---,0.00,VWS V14.01,2013-11-04 11:21:00,
2013-11-04 04:22:00,52.3,31.1,29.79,SW,225,0.9,0.9,44,0.00,,---,0.00,VWS V14.01,2013-11-04 11:22:00,
2013-11-04 04:27:00,52.3,31.1,29.79,SW,225,0.9,0.9,44,0.00,,---,0.00,VWS V14.01,2013-11-04 11:27:00,
2013-11-04 04:32:00,52.3,31.6,29.76,SW,225,0.9,0.9,45,0.00,,---,0.00,VWS V14.01,2013-11-04 11:32:00,
2013-11-04 04:37:00,52.3,31.6,29.76,SW,225,0.9,0.9,45,0.00,,---,0.00,VWS V14.01,2013-11-04 11:37:00,
2013-11-04 04:42:00,52.5,31.8,29.76,SW,225,0.9,0.9,45,0.00,,---,0.00,VWS V14.01,2013-11-04 11:42:00,
2013-11-04 04:47:00,52.7,32.5,29.79,SW,225,0.9,0.9,46,0.00,,---,0.00,VWS V14.01,2013-11-04 11:47:00,
2013-11-04 04:52:00,52.7,32.5,29.79,SW,225,0.9,0.9,46,0.00,,---,0.00,VWS V14.01,2013-11-04 11:52:00,
2013-11-04 04:57:00,53.1,32.8,29.79,SW,225,0.9,0.9,46,0.00,,---,0.00,VWS V14.01,2013-11-04 11:57:00,
2013-11-04 05:02:00,53.4,33.2,29.79,SW,225,0.9,0.9,46,0.00,,---,0.00,VWS V14.01,2013-11-04 12:02:00,
2013-11-04 05:08:00,53.4,33.2,29.79,SW,225,0.9,0.9,46,0.00,,---,0.00,VWS V14.01,2013-11-04 12:08:00,
2013-11-04 05:13:00,53.2,33.0,29.79,SW,225,0.9,0.9,46,0.00,,---,0.00,VWS V14.01,2013-11-04 12:13:00,
2013-11-04 05:18:00,53.2,33.0,29.79,SW,225,0.9,0.9,46,0.00,,---,0.00,VWS V14.01,2013-11-04 12:18:00,
2013-11-04 05:23:00,53.2,33.0,29.79,SW,225,0.9,0.9,46,0.00,,---,0.00,VWS V14.01,2013-11-04 12:23:00,
2013-11-04 05:28:00,53.2,33.0,29.79,SW,225,0.9,0.9,46,0.00,,---,0.00,VWS V14.01,2013-11-04 12:28:00,
2013-11-04 05:33:00,53.4,34.2,29.79,SW,225,0.9,0.9,48,0.00,,---,0.00,VWS V14.01,2013-11-04 12:33:00,
2013-11-04 05:38:00,53.4,34.2,29.79,SW,225,0.9,0.9,48,0.00,,---,0.00,VWS V14.01,2013-11-04 12:38:00,
2013-11-04 05:43:00,53.2,33.0,29.79,SW,225,0.9,0.9,46,0.00,,---,0.00,VWS V14.01,2013-11-04 12:43:00,
2013-11-04 05:48:00,53.2,33.0,29.79,SW,225,0.9,0.9,46,0.00,,---,0.00,VWS V14.01,2013-11-04 12:48:00,
2013-11-04 05:53:00,52.7,34.1,29.79,SW,225,0.9,0.9,49,0.00,,---,0.00,VWS V14.01,2013-11-04 12:53:00,
2013-11-04 05:58:00,52.7,33.0,29.79,SW,225,0.9,0.9,47,0.00,,---,0.00,VWS V14.01,2013-11-04 12:58:00,
2013-11-04 06:03:00,52.9,33.7,29.79,SW,225,0.9,0.9,48,0.00,,---,0.00,VWS V14.01,2013-11-04 13:03:00,
2013-11-04 06:08:00,53.1,33.9,29.79,SW,225,0.9,0.9,48,0.00,,---,0.00,VWS V14.01,2013-11-04 13:08:00,
2013-11-04 06:14:00,53.1,33.9,29.79,SW,225,0.9,0.9,48,0.00,,---,0.00,VWS V14.01,2013-11-04 13:14:00,
2013-11-04 06:19:00,53.2,34.1,29.79,SW,225,0.9,0.9,48,0.00,,---,0.00,VWS V14.01,2013-11-04 13:19:00,
2013-11-04 06:24:00,53.4,34.8,29.79,SW,225,0.9,0.9,49,0.00,,---,0.00,VWS V14.01,2013-11-04 13:24:00,
2013-11-04 06:29:00,53.6,34.9,29.79,SW,225,0.9,0.9,49,0.00,,---,0.00,VWS V14.01,2013-11-04 13:29:00,
2013-11-04 06:34:00,54.0,35.2,29.79,SW,225,0.9,0.9,49,0.00,,---,0.00,VWS V14.01,2013-11-04 13:34:00,
2013-11-04 06:39:00,54.0,35.2,29.79,SW,225,0.9,0.9,49,0.00,,---,0.00,VWS V14.01,2013-11-04 13:39:00,
2013-11-04 06:44:00,54.0,34.7,29.79,SW,225,0.9,0.9,48,0.00,,---,0.00,VWS V14.01,2013-11-04 13:44:00,
2013-11-04 06:49:00,54.1,34.9,29.79,SW,225,0.9,0.9,48,0.00,,---,0.00,VWS V14.01,2013-11-04 13:49:00,
2013-11-04 06:54:00,54.1,35.4,29.79,SW,225,0.9,0.9,49,0.00,,---,0.00,VWS V14.01,2013-11-04 13:54:00,
2013-11-04 07:00:00,54.0,36.3,29.79,SW,225,0.9,0.9,51,0.00,,---,0.00,VWS V14.01,2013-11-04 14:00:00,
2013-11-04 07:05:00,54.0,35.2,29.79,SW,225,0.9,0.9,49,0.00,,---,0.00,VWS V14.01,2013-11-04 14:05:00,
2013-11-04 07:10:00,54.0,35.8,29.79,WNW,292,1.1,1.1,50,0.00,,---,0.00,VWS V14.01,2013-11-04 14:10:00,
2013-11-04 07:15:00,53.8,35.6,29.79,WNW,292,1.1,1.1,50,0.00,,---,0.00,VWS V14.01,2013-11-04 14:15:00,
2013-11-04 07:20:00,53.6,35.9,29.79,WNW,292,1.1,1.1,51,0.00,,---,0.00,VWS V14.01,2013-11-04 14:20:00,
2013-11-04 07:25:00,53.8,36.1,29.79,WNW,292,1.1,1.1,51,0.00,,---,0.00,VWS V14.01,2013-11-04 14:25:00,
2013-11-04 07:30:00,54.0,36.3,29.79,WNW,292,1.1,1.1,51,0.00,,---,0.00,VWS V14.01,2013-11-04 14:30:00,
2013-11-04 07:35:00,54.0,36.3,29.79,WNW,292,1.1,1.1,51,0.00,,---,0.00,VWS V14.01,2013-11-04 14:35:00,
2013-11-04 07:40:00,55.0,37.8,29.79,WNW,292,1.1,1.1,52,0.00,,---,0.00,VWS V14.01,2013-11-04 14:40:00,
2013-11-04 07:45:00,55.8,37.9,29.79,WNW,292,1.1,1.1,51,0.00,,---,0.00,VWS V14.01,2013-11-04 14:45:00,
2013-11-04 07:50:00,56.3,37.9,29.82,WNW,292,1.1,1.1,50,0.00,,---,0.00,VWS V14.01,2013-11-04 14:50:00,
2013-11-04 07:55:00,56.7,38.2,29.82,WNW,292,1.1,1.1,50,0.00,,---,0.00,VWS V14.01,2013-11-04 14:55:00,
2013-11-04 08:00:00,57.4,38.4,29.82,WNW,292,1.1,1.1,49,0.00,,---,0.00,VWS V14.01,2013-11-04 15:00:00,
2013-11-04 08:05:00,57.9,38.9,29.82,WNW,292,1.1,1.1,49,0.00,,---,0.00,VWS V14.01,2013-11-04 15:05:00,
2013-11-04 08:10:00,58.5,39.4,29.82,WNW,292,1.1,1.1,49,0.00,,---,0.00,VWS V14.01,2013-11-04 15:10:00,
2013-11-04 08:15:00,59.0,39.9,29.82,WNW,292,1.1,1.1,49,0.00,,---,0.00,VWS V14.01,2013-11-04 15:15:00,
2013-11-04 08:20:00,59.7,40.0,29.82,WNW,292,1.1,1.1,48,0.00,,---,0.00,VWS V14.01,2013-11-04 15:20:00,
2013-11-04 08:25:00,60.4,40.7,29.82,WNW,292,1.1,1.1,48,0.00,,---,0.00,VWS V14.01,2013-11-04 15:25:00,
2013-11-04 08:30:00,61.2,40.8,29.82,WNW,292,1.1,1.1,47,0.00,,---,0.00,VWS V14.01,2013-11-04 15:30:00,
2013-11-04 08:35:00,61.9,40.9,29.82,WNW,292,1.1,1.1,46,0.00,,---,0.00,VWS V14.01,2013-11-04 15:35:00,
2013-11-04 08:40:00,62.4,41.9,29.82,WNW,292,1.1,1.1,47,0.00,,---,0.00,VWS V14.01,2013-11-04 15:40:00,
2013-11-04 08:46:00,63.3,42.2,29.82,WNW,292,1.1,1.1,46,0.00,,---,0.00,VWS V14.01,2013-11-04 15:46:00,
2013-11-04 08:51:00,64.0,42.3,29.82,WNW,292,1.1,1.1,45,0.00,,---,0.00,VWS V14.01,2013-11-04 15:51:00,
2013-11-04 08:56:00,64.8,42.4,29.82,WNW,292,1.1,1.1,44,0.00,,---,0.00,VWS V14.01,2013-11-04 15:56:00,
2013-11-04 09:01:00,65.7,43.2,29.82,WNW,292,1.1,1.1,44,0.00,,---,0.00,VWS V14.01,2013-11-04 16:01:00,
2013-11-04 09:06:00,66.4,43.2,29.82,SSW,202,1.6,1.6,43,0.00,,---,0.00,VWS V14.01,2013-11-04 16:06:00,
2013-11-04 09:11:00,67.3,44.0,29.82,SSW,202,1.6,1.6,43,0.00,,---,0.00,VWS V14.01,2013-11-04 16:11:00,
2013-11-04 09:16:00,68.0,43.5,29.82,SSW,202,1.6,1.6,41,0.00,,---,0.00,VWS V14.01,2013-11-04 16:16:00,
2013-11-04 09:21:00,68.5,43.9,29.82,SSE,158,2.7,2.7,41,0.00,,---,0.00,VWS V14.01,2013-11-04 16:21:00,
2013-11-04 09:26:00,69.1,43.1,29.82,SSE,158,2.7,2.7,39,0.00,,---,0.00,VWS V14.01,2013-11-04 16:26:00,
2013-11-04 09:31:00,70.0,42.5,29.82,SSE,158,2.7,2.7,37,0.00,,---,0.00,VWS V14.01,2013-11-04 16:31:00,
2013-11-04 09:36:00,70.7,43.9,29.82,SE,135,1.6,1.6,38,0.00,,---,0.00,VWS V14.01,2013-11-04 16:36:00,
2013-11-04 09:41:00,71.6,43.3,29.82,SE,135,1.6,1.6,36,0.00,,---,0.00,VWS V14.01,2013-11-04 16:41:00,
2013-11-04 09:46:00,72.0,42.8,29.82,SSW,202,3.1,3.1,35,0.00,,---,0.00,VWS V14.01,2013-11-04 16:46:00,
2013-11-04 09:51:00,72.7,43.5,29.82,SSW,202,3.1,3.1,35,0.00,,---,0.00,VWS V14.01,2013-11-04 16:51:00,
2013-11-04 09:57:00,73.0,43.0,29.82,SSE,158,4.9,4.9,34,0.00,,---,0.00,VWS V14.01,2013-11-04 16:57:00,
2013-11-04 10:02:00,73.4,42.6,29.79,SSE,158,3.8,3.8,33,0.00,,---,0.00,VWS V14.01,2013-11-04 17:02:00,
2013-11-04 10:07:00,73.6,42.7,29.79,SSW,202,5.4,5.4,33,0.00,,---,0.00,VWS V14.01,2013-11-04 17:07:00,
2013-11-04 10:12:00,74.1,42.4,29.79,SSW,202,5.4,5.4,32,0.00,,---,0.00,VWS V14.01,2013-11-04 17:12:00,
2013-11-04 10:17:00,73.9,42.2,29.79,SSW,202,5.4,5.4,32,0.00,,---,0.00,VWS V14.01,2013-11-04 17:17:00,
2013-11-04 10:22:00,74.1,42.4,29.79,SW,225,1.6,1.6,32,0.00,,---,0.00,VWS V14.01,2013-11-04 17:22:00,
2013-11-04 10:27:00,74.3,42.6,29.79,SSW,202,6.9,6.9,32,0.00,,---,0.00,VWS V14.01,2013-11-04 17:27:00,
2013-11-04 10:32:00,74.8,43.0,29.79,SSW,202,6.9,6.9,32,0.00,,---,0.00,VWS V14.01,2013-11-04 17:32:00,
2013-11-04 10:37:00,75.0,43.2,29.79,SSW,202,6.9,6.9,32,0.00,,---,0.00,VWS V14.01,2013-11-04 17:37:00,
2013-11-04 10:42:00,75.2,43.3,29.79,SSW,202,6.9,6.9,32,0.00,,---,0.00,VWS V14.01,2013-11-04 17:42:00,
2013-11-04 10:47:00,75.6,42.8,29.79,SSW,202,6.9,6.9,31,0.00,,---,0.00,VWS V14.01,2013-11-04 17:47:00,
2013-11-04 10:52:00,75.9,43.1,29.79,South,180,4.0,4.0,31,0.00,,---,0.00,VWS V14.01,2013-11-04 17:52:00,
2013-11-04 10:57:00,76.3,43.5,29.79,South,180,4.0,4.0,31,0.00,,---,0.00,VWS V14.01,2013-11-04 17:57:00,
2013-11-04 11:03:00,76.5,43.6,29.79,South,180,4.0,4.0,31,0.00,,---,0.00,VWS V14.01,2013-11-04 18:03:00,
2013-11-04 11:08:00,76.1,43.3,29.79,South,180,4.0,4.0,31,0.00,,---,0.00,VWS V14.01,2013-11-04 18:08:00,
2013-11-04 11:13:00,76.3,43.5,29.79,SSE,158,6.5,6.5,31,0.00,,---,0.00,VWS V14.01,2013-11-04 18:13:00,
2013-11-04 11:18:00,76.5,43.6,29.79,SSE,158,6.5,6.5,31,0.00,,---,0.00,VWS V14.01,2013-11-04 18:18:00,
2013-11-04 11:23:00,76.5,43.6,29.79,SSE,158,6.5,6.5,31,0.00,,---,0.00,VWS V14.01,2013-11-04 18:23:00,
2013-11-04 11:28:00,76.5,42.8,29.79,SSE,158,6.5,6.5,30,0.00,,---,0.00,VWS V14.01,2013-11-04 18:28:00,
2013-11-04 11:33:00,76.5,42.8,29.79,SSE,158,6.5,6.5,30,0.00,,---,0.00,VWS V14.01,2013-11-04 18:33:00,
2013-11-04 11:38:00,76.1,42.5,29.79,SSE,158,6.5,6.5,30,0.00,,---,0.00,VWS V14.01,2013-11-04 18:38:00,
2013-11-04 11:43:00,76.5,42.8,29.79,SSE,158,6.5,6.5,30,0.00,,---,0.00,VWS V14.01,2013-11-04 18:43:00,
2013-11-04 11:48:00,77.0,43.2,29.76,SSE,158,6.5,6.5,30,0.00,,---,0.00,VWS V14.01,2013-11-04 18:48:00,
2013-11-04 11:53:00,77.2,43.4,29.76,SSE,158,6.5,6.5,30,0.00,,---,0.00,VWS V14.01,2013-11-04 18:53:00,
2013-11-04 11:58:00,77.2,43.4,29.76,South,180,1.1,1.1,30,0.00,,---,0.00,VWS V14.01,2013-11-04 18:58:00,
2013-11-04 12:03:00,77.5,43.7,29.76,South,180,1.1,1.1,30,0.00,,---,0.00,VWS V14.01,2013-11-04 19:03:00,
2013-11-04 12:08:00,78.1,44.2,29.76,South,180,1.1,1.1,30,0.00,,---,0.00,VWS V14.01,2013-11-04 19:08:00,
2013-11-04 12:13:00,78.6,44.6,29.76,South,180,1.1,1.1,30,0.00,,---,0.00,VWS V14.01,2013-11-04 19:13:00,
2013-11-04 12:18:00,78.6,43.7,29.74,South,180,1.1,1.1,29,0.00,,---,0.00,VWS V14.01,2013-11-04 19:18:00,
2013-11-04 12:23:00,78.3,43.4,29.74,South,180,1.1,1.1,29,0.00,,---,0.00,VWS V14.01,2013-11-04 19:23:00,
2013-11-04 12:29:00,78.3,43.4,29.74,South,180,1.1,1.1,29,0.00,,---,0.00,VWS V14.01,2013-11-04 19:29:00,
2013-11-04 12:34:00,78.6,43.7,29.74,South,180,1.1,1.1,29,0.00,,---,0.00,VWS V14.01,2013-11-04 19:34:00,
2013-11-04 12:39:00,78.8,43.0,29.74,South,180,1.1,1.1,28,0.00,,---,0.00,VWS V14.01,2013-11-04 19:39:00,
2013-11-04 12:44:00,79.2,43.3,29.74,South,180,1.1,1.1,28,0.00,,---,0.00,VWS V14.01,2013-11-04 19:44:00,
2013-11-04 12:49:00,79.7,43.8,29.74,South,180,1.1,1.1,28,0.00,,---,0.00,VWS V14.01,2013-11-04 19:49:00,
2013-11-04 12:54:00,80.1,43.1,29.74,South,180,1.1,1.1,27,0.00,,---,0.00,VWS V14.01,2013-11-04 19:54:00,
2013-11-04 12:59:00,80.2,43.3,29.74,South,180,1.1,1.1,27,0.00,,---,0.00,VWS V14.01,2013-11-04 19:59:00,
2013-11-04 13:04:00,80.6,43.6,29.74,South,180,1.1,1.1,27,0.00,,---,0.00,VWS V14.01,2013-11-04 20:04:00,
2013-11-04 13:09:00,80.1,42.1,29.74,South,180,1.1,1.1,26,0.00,,---,0.00,VWS V14.01,2013-11-04 20:09:00,
2013-11-04 13:14:00,79.2,41.4,29.74,South,180,1.1,1.1,26,0.00,,---,0.00,VWS V14.01,2013-11-04 20:14:00,
2013-11-04 13:19:00,79.5,42.6,29.71,South,180,1.1,1.1,27,0.00,,---,0.00,VWS V14.01,2013-11-04 20:19:00,
2013-11-04 13:25:00,80.2,43.3,29.71,South,180,1.1,1.1,27,0.00,,---,0.00,VWS V14.01,2013-11-04 20:25:00,
2013-11-04 13:30:00,80.8,42.7,29.71,South,180,1.1,1.1,26,0.00,,---,0.00,VWS V14.01,2013-11-04 20:30:00,
2013-11-04 13:35:00,80.4,41.4,29.71,South,180,1.1,1.1,25,0.00,,---,0.00,VWS V14.01,2013-11-04 20:35:00,
2013-11-04 13:40:00,81.0,39.7,29.71,South,180,1.1,1.1,23,0.00,,---,0.00,VWS V14.01,2013-11-04 20:40:00,
2013-11-04 13:45:00,81.1,39.9,29.71,South,180,1.1,1.1,23,0.00,,---,0.00,VWS V14.01,2013-11-04 20:45:00,
2013-11-04 13:50:00,80.4,40.4,29.71,South,180,1.1,1.1,24,0.00,,---,0.00,VWS V14.01,2013-11-04 20:50:00,
2013-11-04 13:55:00,80.6,39.4,29.71,South,180,1.1,1.1,23,0.00,,---,0.00,VWS V14.01,2013-11-04 20:55:00,
2013-11-04 14:00:00,81.1,39.9,29.71,South,180,1.1,1.1,23,0.00,,---,0.00,VWS V14.01,2013-11-04 21:00:00,
2013-11-04 14:05:00,81.1,39.9,29.71,South,180,1.1,1.1,23,0.00,,---,0.00,VWS V14.01,2013-11-04 21:05:00,
2013-11-04 14:10:00,80.6,39.4,29.71,South,180,1.1,1.1,23,0.00,,---,0.00,VWS V14.01,2013-11-04 21:10:00,
2013-11-04 14:15:00,81.0,39.7,29.71,South,180,1.1,1.1,23,0.00,,---,0.00,VWS V14.01,2013-11-04 21:15:00,
2013-11-04 14:20:00,80.1,39.0,29.68,South,180,1.1,1.1,23,0.00,,---,0.00,VWS V14.01,2013-11-04 21:20:00,
2013-11-04 14:25:00,79.3,38.4,29.68,South,180,1.1,1.1,23,0.00,,---,0.00,VWS V14.01,2013-11-04 21:25:00,
2013-11-04 14:31:00,78.8,37.9,29.68,South,180,1.1,1.1,23,0.00,,---,0.00,VWS V14.01,2013-11-04 21:31:00,
2013-11-04 14:36:00,79.0,38.1,29.68,South,180,1.1,1.1,23,0.00,,---,0.00,VWS V14.01,2013-11-04 21:36:00,
2013-11-04 14:41:00,79.7,39.8,29.68,South,180,1.1,1.1,24,0.00,,---,0.00,VWS V14.01,2013-11-04 21:41:00,
2013-11-04 14:46:00,79.3,39.5,29.71,South,180,1.1,1.1,24,0.00,,---,0.00,VWS V14.01,2013-11-04 21:46:00,
2013-11-04 14:51:00,79.0,38.1,29.71,South,180,1.1,1.1,23,0.00,,---,0.00,VWS V14.01,2013-11-04 21:51:00,
2013-11-04 14:56:00,78.6,38.8,29.71,South,180,1.1,1.1,24,0.00,,---,0.00,VWS V14.01,2013-11-04 21:56:00,
2013-11-04 15:01:00,78.3,38.5,29.71,South,180,1.1,1.1,24,0.00,,---,0.00,VWS V14.01,2013-11-04 22:01:00,
2013-11-04 15:06:00,78.6,38.8,29.71,South,180,1.1,1.1,24,0.00,,---,0.00,VWS V14.01,2013-11-04 22:06:00,
2013-11-04 15:11:00,79.3,39.5,29.71,South,180,1.1,1.1,24,0.00,,---,0.00,VWS V14.01,2013-11-04 22:11:00,
2013-11-04 15:16:00,79.9,39.9,29.71,South,180,1.1,1.1,24,0.00,,---,0.00,VWS V14.01,2013-11-04 22:16:00,
2013-11-04 15:21:00,80.2,40.2,29.71,South,180,1.1,1.1,24,0.00,,---,0.00,VWS V14.01,2013-11-04 22:21:00,
2013-11-04 15:26:00,80.6,40.5,29.71,South,180,1.1,1.1,24,0.00,,---,0.00,VWS V14.01,2013-11-04 22:26:00,
2013-11-04 15:31:00,80.6,40.5,29.68,South,180,1.1,1.1,24,0.00,,---,0.00,VWS V14.01,2013-11-04 22:31:00,
2013-11-04 15:36:00,80.1,39.0,29.68,South,180,1.1,1.1,23,0.00,,---,0.00,VWS V14.01,2013-11-04 22:36:00,
2013-11-04 15:41:00,78.8,37.9,29.68,South,180,1.1,1.1,23,0.00,,---,0.00,VWS V14.01,2013-11-04 22:41:00,
2013-11-04 15:46:00,78.6,38.8,29.71,South,180,1.1,1.1,24,0.00,,---,0.00,VWS V14.01,2013-11-04 22:46:00,
2013-11-04 15:51:00,78.8,39.0,29.71,South,180,1.1,1.1,24,0.00,,---,0.00,VWS V14.01,2013-11-04 22:51:00,
2013-11-04 15:56:00,79.2,39.3,29.71,South,180,1.1,1.1,24,0.00,,---,0.00,VWS V14.01,2013-11-04 22:56:00,
2013-11-04 16:01:00,79.3,38.4,29.71,South,180,1.1,1.1,23,0.00,,---,0.00,VWS V14.01,2013-11-04 23:01:00,
2013-11-04 16:06:00,78.8,37.9,29.71,South,180,1.1,1.1,23,0.00,,---,0.00,VWS V14.01,2013-11-04 23:06:00,
2013-11-04 16:11:00,77.9,38.2,29.71,South,180,1.1,1.1,24,0.00,,---,0.00,VWS V14.01,2013-11-04 23:11:00,
2013-11-04 16:17:00,77.2,37.6,29.71,South,180,1.1,1.1,24,0.00,,---,0.00,VWS V14.01,2013-11-04 23:17:00,
2013-11-04 16:22:00,77.0,37.5,29.71,South,180,1.1,1.1,24,0.00,,---,0.00,VWS V14.01,2013-11-04 23:22:00,
2013-11-04 16:27:00,76.8,38.4,29.71,South,180,1.1,1.1,25,0.00,,---,0.00,VWS V14.01,2013-11-04 23:27:00,
2013-11-04 16:32:00,76.6,38.2,29.71,South,180,1.1,1.1,25,0.00,,---,0.00,VWS V14.01,2013-11-04 23:32:00,
2013-11-04 16:37:00,76.5,38.1,29.71,South,180,1.1,1.1,25,0.00,,---,0.00,VWS V14.01,2013-11-04 23:37:00,
2013-11-04 16:42:00,76.5,39.1,29.71,South,180,1.1,1.1,26,0.00,,---,0.00,VWS V14.01,2013-11-04 23:42:00,
2013-11-04 16:47:00,76.3,38.9,29.71,South,180,1.1,1.1,26,0.00,,---,0.00,VWS V14.01,2013-11-04 23:47:00,
2013-11-04 16:52:00,75.9,38.6,29.71,South,180,1.1,1.1,26,0.00,,---,0.00,VWS V14.01,2013-11-04 23:52:00,
2013-11-04 16:57:00,75.6,39.3,29.71,South,180,1.1,1.1,27,0.00,,---,0.00,VWS V14.01,2013-11-04 23:57:00,
2013-11-04 17:02:00,75.2,39.0,29.68,South,180,1.1,1.1,27,0.00,,---,0.00,VWS V14.01,2013-11-05 00:02:00,
2013-11-04 17:07:00,74.8,38.7,29.68,South,180,1.1,1.1,27,0.00,,---,0.00,VWS V14.01,2013-11-05 00:07:00,
2013-11-04 17:13:00,74.7,39.4,29.68,South,180,1.1,1.1,28,0.00,,---,0.00,VWS V14.01,2013-11-05 00:13:00,
2013-11-04 17:18:00,72.7,44.9,29.71,South,180,1.1,1.1,37,0.00,,---,0.00,VWS V14.01,2013-11-05 00:18:00,
2013-11-04 17:23:00,70.7,44.5,29.71,South,180,1.1,1.1,39,0.08,,---,0.08,VWS V14.01,2013-11-05 00:23:00,
2013-11-04 17:28:00,69.3,45.8,29.71,South,180,1.1,1.1,43,0.08,,---,0.08,VWS V14.01,2013-11-05 00:28:00,
2013-11-04 17:33:00,68.4,45.0,29.71,South,180,1.1,1.1,43,0.08,,---,0.08,VWS V14.01,2013-11-05 00:33:00,
2013-11-04 17:38:00,67.6,45.6,29.71,South,180,1.1,1.1,45,0.08,,---,0.08,VWS V14.01,2013-11-05 00:38:00,
2013-11-04 17:43:00,67.5,46.0,29.71,South,180,1.1,1.1,46,0.08,,---,0.08,VWS V14.01,2013-11-05 00:43:00,
2013-11-04 17:48:00,67.1,46.8,29.71,South,180,1.1,1.1,48,0.08,,---,0.08,VWS V14.01,2013-11-05 00:48:00,
2013-11-04 17:54:00,66.9,47.2,29.71,South,180,1.1,1.1,49,0.08,,---,0.08,VWS V14.01,2013-11-05 00:54:00,
2013-11-04 17:59:00,66.7,47.0,29.71,South,180,1.1,1.1,49,0.08,,---,0.08,VWS V14.01,2013-11-05 00:59:00,
2013-11-04 18:04:00,66.4,48.2,29.71,South,180,1.1,1.1,52,0.08,,---,0.08,VWS V14.01,2013-11-05 01:04:00,
2013-11-04 18:09:00,66.2,47.0,29.71,South,180,1.1,1.1,50,0.08,,---,0.08,VWS V14.01,2013-11-05 01:09:00,
2013-11-04 18:14:00,66.2,46.5,29.71,South,180,1.1,1.1,49,0.08,,---,0.08,VWS V14.01,2013-11-05 01:14:00,
2013-11-04 18:19:00,66.0,45.8,29.74,South,180,1.1,1.1,48,0.08,,---,0.08,VWS V14.01,2013-11-05 01:19:00,
2013-11-04 18:24:00,66.2,45.4,29.74,South,180,1.1,1.1,47,0.00,,---,0.08,VWS V14.01,2013-11-05 01:24:00,
2013-11-04 18:29:00,66.2,44.8,29.74,South,180,1.1,1.1,46,0.00,,---,0.08,VWS V14.01,2013-11-05 01:29:00,
2013-11-04 18:34:00,66.6,45.2,29.74,South,180,1.1,1.1,46,0.00,,---,0.08,VWS V14.01,2013-11-05 01:34:00,
2013-11-04 18:39:00,66.6,44.6,29.74,South,180,1.1,1.1,45,0.00,,---,0.08,VWS V14.01,2013-11-05 01:39:00,
2013-11-04 18:44:00,66.6,44.6,29.74,South,180,1.1,1.1,45,0.00,,---,0.08,VWS V14.01,2013-11-05 01:44:00,
2013-11-04 18:49:00,66.6,44.6,29.74,South,180,1.1,1.1,45,0.00,,---,0.08,VWS V14.01,2013-11-05 01:49:00,
2013-11-04 18:54:00,66.7,44.8,29.74,South,180,1.1,1.1,45,0.00,,---,0.08,VWS V14.01,2013-11-05 01:54:00,
2013-11-04 19:00:00,66.7,44.2,29.74,South,180,1.1,1.1,44,0.00,,---,0.08,VWS V14.01,2013-11-05 02:00:00,
2013-11-04 19:05:00,66.9,44.3,29.74,South,180,1.1,1.1,44,0.00,,---,0.08,VWS V14.01,2013-11-05 02:05:00,
2013-11-04 19:10:00,66.7,44.8,29.74,South,180,1.1,1.1,45,0.00,,---,0.08,VWS V14.01,2013-11-05 02:10:00,
2013-11-04 19:15:00,66.9,44.9,29.74,South,180,1.1,1.1,45,0.00,,---,0.08,VWS V14.01,2013-11-05 02:15:00,
2013-11-04 19:20:00,66.9,44.3,29.74,WSW,248,4.0,4.0,44,0.00,,---,0.08,VWS V14.01,2013-11-05 02:20:00,
2013-11-04 19:25:00,66.9,44.3,29.74,SSW,202,3.8,3.8,44,0.00,,---,0.08,VWS V14.01,2013-11-05 02:25:00,
2013-11-04 19:30:00,67.1,45.1,29.74,WSW,248,2.5,2.5,45,0.00,,---,0.08,VWS V14.01,2013-11-05 02:30:00,
2013-11-04 19:35:00,67.3,46.4,29.76,WSW,248,3.4,5.4,47,0.00,,---,0.08,VWS V14.01,2013-11-05 02:35:00,
2013-11-04 19:40:00,67.1,47.3,29.76,WSW,248,4.9,4.9,49,0.00,,---,0.08,VWS V14.01,2013-11-05 02:40:00,
2013-11-04 19:45:00,67.1,47.9,29.76,West,270,2.0,7.4,50,0.00,,---,0.08,VWS V14.01,2013-11-05 02:45:00,
2013-11-04 19:50:00,67.1,47.9,29.76,SW,225,6.5,6.5,50,0.00,,---,0.08,VWS V14.01,2013-11-05 02:50:00,
2013-11-04 19:55:00,66.9,48.2,29.76,WSW,248,4.3,4.3,51,0.00,,---,0.08,VWS V14.01,2013-11-05 02:55:00,
2013-11-04 20:01:00,66.9,47.7,29.76,SW,225,3.4,3.4,50,0.00,,---,0.08,VWS V14.01,2013-11-05 03:01:00,
2013-11-04 20:06:00,66.7,48.6,29.76,WSW,248,4.3,5.6,52,0.00,,---,0.08,VWS V14.01,2013-11-05 03:06:00,
2013-11-04 20:11:00,66.6,47.9,29.76,SW,225,4.9,4.9,51,0.00,,---,0.08,VWS V14.01,2013-11-05 03:11:00,
2013-11-04 20:16:00,66.4,48.2,29.76,SW,225,2.9,2.9,52,0.00,,---,0.08,VWS V14.01,2013-11-05 03:16:00,
2013-11-04 20:21:00,66.2,48.6,29.76,WSW,248,3.8,3.8,53,0.00,,---,0.08,VWS V14.01,2013-11-05 03:21:00,
2013-11-04 20:26:00,66.2,48.6,29.76,SW,225,6.0,6.0,53,0.00,,---,0.08,VWS V14.01,2013-11-05 03:26:00,
2013-11-04 20:31:00,66.0,48.4,29.79,SW,225,2.5,2.5,53,0.00,,---,0.08,VWS V14.01,2013-11-05 03:31:00,
2013-11-04 20:36:00,65.8,48.8,29.79,WSW,248,5.4,5.4,54,0.00,,---,0.08,VWS V14.01,2013-11-05 03:36:00,
2013-11-04 20:41:00,65.7,48.1,29.79,SW,225,4.9,4.9,53,0.00,,---,0.08,VWS V14.01,2013-11-05 03:41:00,
2013-11-04 20:47:00,65.7,48.1,29.79,West,270,2.7,2.7,53,0.00,,---,0.08,VWS V14.01,2013-11-05 03:47:00,
2013-11-04 20:52:00,65.5,47.4,29.79,West,270,3.1,3.1,52,0.00,,---,0.08,VWS V14.01,2013-11-05 03:52:00,
2013-11-04 20:57:00,65.5,47.9,29.79,SW,225,1.6,4.0,53,0.00,,---,0.08,VWS V14.01,2013-11-05 03:57:00,
2013-11-04 21:02:00,65.3,47.8,29.79,SW,225,1.6,1.6,53,0.00,,---,0.08,VWS V14.01,2013-11-05 04:02:00,
2013-11-04 21:07:00,65.1,47.1,29.79,SSW,202,1.6,2.5,52,0.00,,---,0.08,VWS V14.01,2013-11-05 04:07:00,
2013-11-04 21:12:00,65.1,47.1,29.79,SW,225,2.0,2.9,52,0.00,,---,0.08,VWS V14.01,2013-11-05 04:12:00,
2013-11-04 21:17:00,64.9,46.9,29.79,WSW,248,1.3,1.3,52,0.00,,---,0.08,VWS V14.01,2013-11-05 04:17:00,
2013-11-04 21:22:00,64.9,46.9,29.79,WSW,248,1.1,1.6,52,0.00,,---,0.08,VWS V14.01,2013-11-05 04:22:00,
2013-11-04 21:27:00,64.8,46.7,29.79,SW,225,0.9,2.9,52,0.00,,---,0.08,VWS V14.01,2013-11-05 04:27:00,
2013-11-04 21:33:00,64.8,46.7,29.79,SW,225,3.4,3.6,52,0.00,,---,0.08,VWS V14.01,2013-11-05 04:33:00,
2013-11-04 21:38:00,64.6,46.6,29.79,SSW,202,2.9,2.9,52,0.00,,---,0.08,VWS V14.01,2013-11-05 04:38:00,
2013-11-04 21:43:00,64.4,46.4,29.79,SW,225,1.3,3.1,52,0.00,,---,0.08,VWS V14.01,2013-11-05 04:43:00,
2013-11-04 21:48:00,64.2,46.2,29.79,WSW,248,3.8,3.8,52,0.00,,---,0.08,VWS V14.01,2013-11-05 04:48:00,
2013-11-04 21:53:00,64.0,46.1,29.79,WSW,248,3.4,3.4,52,0.00,,---,0.08,VWS V14.01,2013-11-05 04:53:00,
2013-11-04 21:58:00,63.9,45.9,29.79,SW,225,3.6,3.6,52,0.00,,---,0.08,VWS V14.01,2013-11-05 04:58:00,
2013-11-04 22:01:00,63.7,45.8,29.79,WSW,248,1.3,3.6,52,0.00,,---,0.08,VWS V14.01,2013-11-05 05:01:00,
2013-11-04 22:02:00,63.5,45.6,29.79,West,270,2.9,2.9,52,0.00,,---,0.08,VWS V14.01,2013-11-05 05:02:00,
2013-11-04 22:03:00,63.5,45.6,29.79,WSW,248,0.0,0.0,52,0.00,,---,0.08,VWS V14.01,2013-11-05 05:03:00,
2013-11-04 22:08:00,63.1,44.7,29.79,WSW,248,1.1,2.7,51,0.00,,---,0.08,VWS V14.01,2013-11-05 05:08:00,
2013-11-04 22:13:00,63.0,44.6,29.79,WSW,248,0.9,0.9,51,0.00,,---,0.08,VWS V14.01,2013-11-05 05:13:00,
2013-11-04 22:18:00,62.6,44.2,29.79,SSW,202,2.0,2.0,51,0.00,,---,0.08,VWS V14.01,2013-11-05 05:18:00,
2013-11-04 22:23:00,62.2,44.4,29.79,SSW,202,2.0,2.0,52,0.00,,---,0.08,VWS V14.01,2013-11-05 05:23:00,
2013-11-04 22:28:00,61.9,44.1,29.79,South,180,0.9,0.9,52,0.00,,---,0.08,VWS V14.01,2013-11-05 05:28:00,
2013-11-04 22:33:00,61.9,44.6,29.82,East,90,0.9,0.9,53,0.00,,---,0.08,VWS V14.01,2013-11-05 05:33:00,